Al Cenac — WDD5445 — position and weather

sailwx.info

Track history (hours):
 
Tides and Currents Weather Stations Pressure Air Temp Water Temp Dewpoint Dewpoint Depression Visibility Wind Speed Wind Dir Waves Ship Positions

Al Cenac

Owner: Caillou Island Towing Co, Inc., Houma, LA. More information available from US FCC via Universal Licensing System and Coast Guard Vessel Documentation Center.

Last reported at 2015-May-30 08:32 UTC. Time now 2015-May-30 08:36 UTC.
Position N 40°38' W 074°08'.

; draft 10 m.

MMSI: 367158530.

Date/timePositionNaut miles runAvg speedWind from/ knotsBaromVisibWave heightAir tempDewpointWater temp
2015-May-30 08:32N 40°38' W 074°08'0 0.0
2015-May-30 07:33N 40°38' W 074°08'0 0.0
2015-May-30 06:28N 40°38' W 074°08'0 0.0
2015-May-30 05:29N 40°38' W 074°08'0 0.0
2015-May-30 04:32N 40°38' W 074°08'0 0.0
2015-May-30 03:33N 40°38' W 074°08'0 0.0
2015-May-30 02:30N 40°38' W 074°08'0 0.0
2015-May-30 01:31N 40°38' W 074°08'3 3.2
2015-May-30 00:25N 40°38' W 074°12'2 1.2
2015-May-29 22:33N 40°38' W 074°10'1 1.3
2015-May-29 21:33N 40°38' W 074°08'0 0.0
2015-May-29 20:33N 40°38' W 074°08'0 0.0
2015-May-29 19:16N 40°38' W 074°08'0 0.0
2015-May-29 18:29N 40°38' W 074°08'0 0.0
2015-May-29 17:29N 40°38' W 074°08'0 0.0
2015-May-29 16:30N 40°38' W 074°08'1 1.0
2015-May-29 15:28N 40°39' W 074°07'0 0.0
2015-May-29 14:11N 40°39' W 074°07'4 7.1
2015-May-29 13:34N 40°38' W 074°12'4 3.6
2015-May-29 12:26N 40°34' W 074°14'0 0.0
2015-May-29 11:15N 40°34' W 074°14'0 0.0
2015-May-29 10:31N 40°34' W 074°14'0 0.0
2015-May-29 09:20N 40°34' W 074°14'0 0.0
2015-May-29 08:23N 40°34' W 074°14'0 0.0
2015-May-29 07:33N 40°34' W 074°14'0 0.0
2015-May-29 06:30N 40°34' W 074°14'5 1.9
2015-May-29 04:05N 40°30' W 074°17'11 2.4
2015-May-28 23:32N 40°38' W 074°08'0 0.0
2015-May-28 21:31N 40°38' W 074°08'0 0.0
2015-May-28 20:31N 40°38' W 074°08'0 0.0
2015-May-28 19:32N 40°38' W 074°08'0 0.0
2015-May-28 18:27N 40°38' W 074°08'0 0.0
2015-May-28 17:33N 40°38' W 074°08'0 0.0
2015-May-28 16:19N 40°38' W 074°08'0 0.0
2015-May-28 15:32N 40°38' W 074°08'0 0.0
2015-May-28 14:29N 40°38' W 074°08'0 0.0
2015-May-28 13:33N 40°38' W 074°08'0 0.0
2015-May-28 12:33N 40°38' W 074°08'0 0.0
2015-May-28 11:25N 40°38' W 074°08'0 0.0
2015-May-28 10:20N 40°38' W 074°08'0 0.0
2015-May-28 09:32N 40°38' W 074°08'5 5.0
2015-May-28 08:32N 40°35' W 074°13'2 0.5
2015-May-28 05:33N 40°34' W 074°14'7 7.0
2015-May-28 04:30N 40°39' W 074°07'1 1.1
2015-May-28 03:29N 40°39' W 074°05'1 0.4
2015-May-28 00:33N 40°39' W 074°07'9 1.6
2015-May-27 19:20N 40°32' W 074°15'2 0.4
2015-May-27 15:29N 40°31' W 074°15'3 0.9
2015-May-27 12:27N 40°33' W 074°14'6 7.2
2015-May-27 11:33N 40°39' W 074°09'1 1.1
2015-May-27 10:32N 40°38' W 074°08'0 0.0
2015-May-27 09:33N 40°38' W 074°08'0 0.0
2015-May-27 08:33N 40°38' W 074°08'0 0.0
2015-May-27 07:28N 40°38' W 074°08'0 0.0
2015-May-27 06:11N 40°38' W 074°08'0 0.0
2015-May-27 05:27N 40°38' W 074°08'3 3.8
2015-May-27 04:33N 40°40' W 074°04'9 8.9
2015-May-27 03:31N 40°47' W 073°56'5 5.2
2015-May-27 02:33N 40°42' W 073°59'2 1.4
2015-May-27 01:27N 40°41' W 074°00'6 5.8
2015-May-27 00:30N 40°39' W 074°07'5 5.0
2015-May-26 23:33N 40°36' W 074°12'3 1.5
2015-May-26 21:25N 40°33' W 074°14'6 7.3
2015-May-26 20:33N 40°39' W 074°10'2 1.7
2015-May-26 19:30N 40°38' W 074°08'0 0.0
2015-May-26 18:25N 40°38' W 074°08'4 4.5
2015-May-26 17:33N 40°36' W 074°12'3 2.3
2015-May-26 16:18N 40°34' W 074°14'6 7.8
2015-May-26 15:33N 40°39' W 074°10'2 1.9
2015-May-26 14:31N 40°38' W 074°08'1 0.5
2015-May-26 13:22N 40°39' W 074°07'1 0.6
2015-May-26 12:32N 40°38' W 074°08'0 0.0
2015-May-26 11:31N 40°38' W 074°08'0 0.0
2015-May-26 10:31N 40°38' W 074°08'0 0.0
2015-May-26 08:27N 40°38' W 074°08'0 0.0
2015-May-26 07:22N 40°38' W 074°08'0 0.0
2015-May-26 06:10N 40°38' W 074°08'0 0.0
2015-May-26 05:29N 40°38' W 074°08'0 0.0
2015-May-26 04:06N 40°38' W 074°08'0 0.0
2015-May-26 03:24N 40°38' W 074°08'0 0.0
2015-May-26 02:31N 40°38' W 074°08'0 0.0
2015-May-26 01:31N 40°38' W 074°08'2 2.2
2015-May-26 00:33N 40°39' W 074°05'1 0.9
2015-May-25 23:33N 40°39' W 074°06'1 1.2
2015-May-25 22:29N 40°38' W 074°08'0 0.0
2015-May-25 21:30N 40°38' W 074°08'0 0.0
2015-May-25 20:31N 40°38' W 074°08'0 0.0
2015-May-25 19:31N 40°38' W 074°08'0 0.0
2015-May-25 18:32N 40°38' W 074°08'0 0.4
2015-May-25 17:33N 40°39' W 074°07'3 3.0
2015-May-25 16:33N 40°39' W 074°11'4 2.8
2015-May-25 15:16N 40°35' W 074°13'3 4.5
2015-May-25 14:33N 40°38' W 074°12'7 6.6
2015-May-25 13:33N 40°38' W 074°03'3 3.5
2015-May-25 12:33N 40°39' W 074°08'0 0.2
2015-May-25 11:32N 40°38' W 074°08'0 0.0
2015-May-25 10:33N 40°38' W 074°08'0 0.0
2015-May-25 09:31N 40°38' W 074°08'0 0.0
2015-May-25 06:24N 40°38' W 074°08'0 0.0
2015-May-25 05:18N 40°38' W 074°08'0 0.0
2015-May-25 04:31N 40°38' W 074°08'3 3.1
2015-May-25 03:33N 40°38' W 074°12'3 2.4
2015-May-25 02:21N 40°38' W 074°08'0 0.0
2015-May-25 01:33N 40°38' W 074°08'0 0.0
2015-May-25 00:25N 40°38' W 074°08'0 0.0
2015-May-24 23:32N 40°38' W 074°08'0 0.0
2015-May-24 22:29N 40°38' W 074°08'0 0.0
2015-May-24 21:30N 40°38' W 074°08'0 0.0
2015-May-24 20:28N 40°38' W 074°08'0 0.0
2015-May-24 19:25N 40°38' W 074°08'0 0.0
2015-May-24 18:32N 40°38' W 074°08'0 0.0
2015-May-24 17:32N 40°38' W 074°08'0 0.0
2015-May-24 16:33N 40°38' W 074°08'0 0.0
2015-May-24 15:31N 40°38' W 074°08'0 0.0
2015-May-24 14:31N 40°38' W 074°08'0 0.0
2015-May-24 13:32N 40°38' W 074°08'0 0.0
2015-May-24 12:33N 40°38' W 074°08'0 0.0
2015-May-24 11:16N 40°38' W 074°08'0 0.0
2015-May-24 10:31N 40°38' W 074°08'0 0.0
2015-May-24 09:32N 40°38' W 074°08'0 0.0
2015-May-24 08:32N 40°38' W 074°08'1 1.5
2015-May-24 07:33N 40°39' W 074°10'7 7.0
2015-May-24 06:30N 40°33' W 074°15'1 1.5
2015-May-24 05:30N 40°34' W 074°14'0 0.0
2015-May-24 04:33N 40°34' W 074°14'6 6.0
2015-May-24 03:33N 40°39' W 074°10'2 1.4
2015-May-24 02:28N 40°38' W 074°08'0 0.0
2015-May-24 01:32N 40°38' W 074°08'0 0.0
2015-May-24 00:32N 40°38' W 074°08'0 0.0
2015-May-23 23:33N 40°38' W 074°08'0 0.0
2015-May-23 22:31N 40°38' W 074°08'0 0.0
2015-May-23 21:28N 40°38' W 074°08'0 0.0
2015-May-23 20:29N 40°38' W 074°08'0 0.0
2015-May-23 19:33N 40°38' W 074°08'0 0.0
2015-May-23 16:29N 40°38' W 074°08'0 0.0
2015-May-23 15:30N 40°38' W 074°08'0 0.0
2015-May-23 14:33N 40°38' W 074°08'0 0.0
2015-May-23 13:32N 40°38' W 074°08'0 0.0
2015-May-23 12:33N 40°38' W 074°08'0 0.0
2015-May-23 11:25N 40°38' W 074°08'0 0.0
2015-May-23 10:20N 40°38' W 074°08'0 0.0
2015-May-23 09:20N 40°38' W 074°08'0 0.0
2015-May-23 08:33N 40°38' W 074°08'0 0.0
2015-May-23 07:28N 40°38' W 074°08'0 0.0
2015-May-23 06:22N 40°38' W 074°08'0 0.0
2015-May-23 04:15N 40°38' W 074°08'0 0.0
2015-May-23 02:25N 40°38' W 074°08'0 0.0
2015-May-23 01:26N 40°38' W 074°08'0 0.0
2015-May-23 00:32N 40°38' W 074°08'0 0.0
2015-May-22 23:33N 40°38' W 074°08'0 0.0
2015-May-22 22:34N 40°38' W 074°08'0 0.0
2015-May-22 21:19N 40°38' W 074°08'0 0.0
2015-May-22 20:23N 40°38' W 074°08'0 0.0
2015-May-22 19:33N 40°38' W 074°08'4 3.5
2015-May-22 18:32N 40°37' W 074°12'4 3.8
2015-May-22 17:31N 40°39' W 074°08'2 2.1
2015-May-22 16:32N 40°39' W 074°05'1 0.9
2015-May-22 15:33N 40°39' W 074°06'6 6.3
2015-May-22 14:33N 40°35' W 074°13'1 0.4
2015-May-22 12:13N 40°36' W 074°12'0 0.0
2015-May-22 11:26N 40°36' W 074°12'71306549.9
2015-May-22 10:20S 78°15' W 074°12'71309009.9
2015-May-22 09:33N 40°36' W 074°12'0 0.0
2015-May-22 08:20N 40°36' W 074°12'1 1.7
2015-May-22 07:32N 40°37' W 074°12'2 1.9
2015-May-22 06:30N 40°39' W 074°11'3 3.0
2015-May-22 05:32N 40°39' W 074°07'4 3.0
2015-May-22 04:12N 40°38' W 074°12'0 0.0
2015-May-22 03:30N 40°38' W 074°12'0 0.0
2015-May-22 02:31N 40°38' W 074°12'3 1.7
2015-May-22 00:31N 40°38' W 074°08'0 0.0
2015-May-21 23:26N 40°38' W 074°08'0 0.0
2015-May-21 22:29N 40°38' W 074°08'0 0.0
2015-May-21 21:33N 40°38' W 074°08'0 0.0
2015-May-21 20:25N 40°38' W 074°08'0 0.0
2015-May-21 19:31N 40°38' W 074°08'0 0.0
2015-May-21 15:19N 40°38' W 074°08'0 0.0
2015-May-21 14:08N 40°38' W 074°08'0 0.0
2015-May-21 13:26N 40°38' W 074°08'0 0.0
2015-May-21 12:33N 40°38' W 074°08'0 0.0
2015-May-21 11:33N 40°38' W 074°08'0 0.0
2015-May-21 10:28N 40°38' W 074°08'0 0.0
2015-May-21 09:29N 40°38' W 074°08'0 0.0
2015-May-21 08:29N 40°38' W 074°08'0 0.0
2015-May-21 07:30N 40°38' W 074°08'0 0.0
2015-May-21 06:13N 40°38' W 074°08'0 0.0
2015-May-21 04:32N 40°38' W 074°08'0 0.0
2015-May-21 02:09N 40°38' W 074°08'0 0.0
2015-May-21 01:28N 40°38' W 074°08'0 0.0
2015-May-21 00:29N 40°38' W 074°08'0 0.0
2015-May-20 23:29N 40°38' W 074°08'3 3.1
2015-May-20 22:32N 40°41' W 074°09'0 0.0
2015-May-20 21:29N 40°41' W 074°09'3 3.0
2015-May-20 20:33N 40°39' W 074°09'7 6.6
2015-May-20 19:33N 40°41' W 074°01'2 2.0
2015-May-20 18:33N 40°42' W 073°58'2 2.2
2015-May-20 17:33N 40°41' W 074°01'6 5.5
2015-May-20 16:28N 40°38' W 074°08'0 0.0
2015-May-20 15:28N 40°38' W 074°08'0 0.0
2015-May-20 14:22N 40°38' W 074°08'0 0.0
2015-May-20 13:05N 40°38' W 074°08'0 0.0
2015-May-20 12:12N 40°38' W 074°08'0 0.0
2015-May-20 10:31N 40°38' W 074°08'0 0.0
2015-May-20 09:32N 40°38' W 074°08'  
Track history (hours):
 
Tides and Currents Weather Stations Pressure Air Temp Water Temp Dewpoint Dewpoint Depression Visibility Wind Speed Wind Dir Waves Ship Positions

Al Cenac

Owner: Caillou Island Towing Co, Inc., Houma, LA. More information available from US FCC via Universal Licensing System and Coast Guard Vessel Documentation Center.

Last reported at 2015-May-30 08:32 UTC. Time now 2015-May-30 08:36 UTC.
Position N 40°38' W 074°08'.

; draft 10 m.

MMSI: 367158530.

Date/timePositionNaut miles runAvg speedWind from/ knotsBaromVisibWave heightAir tempDewpointWater temp
2015-May-30 08:32N 40°38' W 074°08'0 0.0
2015-May-30 07:33N 40°38' W 074°08'0 0.0
2015-May-30 06:28N 40°38' W 074°08'0 0.0
2015-May-30 05:29N 40°38' W 074°08'0 0.0
2015-May-30 04:32N 40°38' W 074°08'0 0.0
2015-May-30 03:33N 40°38' W 074°08'0 0.0
2015-May-30 02:30N 40°38' W 074°08'0 0.0
2015-May-30 01:31N 40°38' W 074°08'3 3.2
2015-May-30 00:25N 40°38' W 074°12'2 1.2
2015-May-29 22:33N 40°38' W 074°10'1 1.3
2015-May-29 21:33N 40°38' W 074°08'0 0.0
2015-May-29 20:33N 40°38' W 074°08'0 0.0
2015-May-29 19:16N 40°38' W 074°08'0 0.0
2015-May-29 18:29N 40°38' W 074°08'0 0.0
2015-May-29 17:29N 40°38' W 074°08'0 0.0
2015-May-29 16:30N 40°38' W 074°08'1 1.0
2015-May-29 15:28N 40°39' W 074°07'0 0.0
2015-May-29 14:11N 40°39' W 074°07'4 7.1
2015-May-29 13:34N 40°38' W 074°12'4 3.6
2015-May-29 12:26N 40°34' W 074°14'0 0.0
2015-May-29 11:15N 40°34' W 074°14'0 0.0
2015-May-29 10:31N 40°34' W 074°14'0 0.0
2015-May-29 09:20N 40°34' W 074°14'0 0.0
2015-May-29 08:23N 40°34' W 074°14'0 0.0
2015-May-29 07:33N 40°34' W 074°14'0 0.0
2015-May-29 06:30N 40°34' W 074°14'5 1.9
2015-May-29 04:05N 40°30' W 074°17'11 2.4
2015-May-28 23:32N 40°38' W 074°08'0 0.0
2015-May-28 21:31N 40°38' W 074°08'0 0.0
2015-May-28 20:31N 40°38' W 074°08'0 0.0
2015-May-28 19:32N 40°38' W 074°08'0 0.0
2015-May-28 18:27N 40°38' W 074°08'0 0.0
2015-May-28 17:33N 40°38' W 074°08'0 0.0
2015-May-28 16:19N 40°38' W 074°08'0 0.0
2015-May-28 15:32N 40°38' W 074°08'0 0.0
2015-May-28 14:29N 40°38' W 074°08'0 0.0
2015-May-28 13:33N 40°38' W 074°08'0 0.0
2015-May-28 12:33N 40°38' W 074°08'0 0.0
2015-May-28 11:25N 40°38' W 074°08'0 0.0
2015-May-28 10:20N 40°38' W 074°08'0 0.0
2015-May-28 09:32N 40°38' W 074°08'5 5.0
2015-May-28 08:32N 40°35' W 074°13'2 0.5
2015-May-28 05:33N 40°34' W 074°14'7 7.0
2015-May-28 04:30N 40°39' W 074°07'1 1.1
2015-May-28 03:29N 40°39' W 074°05'1 0.4
2015-May-28 00:33N 40°39' W 074°07'9 1.6
2015-May-27 19:20N 40°32' W 074°15'2 0.4
2015-May-27 15:29N 40°31' W 074°15'3 0.9
2015-May-27 12:27N 40°33' W 074°14'6 7.2
2015-May-27 11:33N 40°39' W 074°09'1 1.1
2015-May-27 10:32N 40°38' W 074°08'0 0.0
2015-May-27 09:33N 40°38' W 074°08'0 0.0
2015-May-27 08:33N 40°38' W 074°08'0 0.0
2015-May-27 07:28N 40°38' W 074°08'0 0.0
2015-May-27 06:11N 40°38' W 074°08'0 0.0
2015-May-27 05:27N 40°38' W 074°08'3 3.8
2015-May-27 04:33N 40°40' W 074°04'9 8.9
2015-May-27 03:31N 40°47' W 073°56'5 5.2
2015-May-27 02:33N 40°42' W 073°59'2 1.4
2015-May-27 01:27N 40°41' W 074°00'6 5.8
2015-May-27 00:30N 40°39' W 074°07'5 5.0
2015-May-26 23:33N 40°36' W 074°12'3 1.5
2015-May-26 21:25N 40°33' W 074°14'6 7.3
2015-May-26 20:33N 40°39' W 074°10'2 1.7
2015-May-26 19:30N 40°38' W 074°08'0 0.0
2015-May-26 18:25N 40°38' W 074°08'4 4.5
2015-May-26 17:33N 40°36' W 074°12'3 2.3
2015-May-26 16:18N 40°34' W 074°14'6 7.8
2015-May-26 15:33N 40°39' W 074°10'2 1.9
2015-May-26 14:31N 40°38' W 074°08'1 0.5
2015-May-26 13:22N 40°39' W 074°07'1 0.6
2015-May-26 12:32N 40°38' W 074°08'0 0.0
2015-May-26 11:31N 40°38' W 074°08'0 0.0
2015-May-26 10:31N 40°38' W 074°08'0 0.0
2015-May-26 08:27N 40°38' W 074°08'0 0.0
2015-May-26 07:22N 40°38' W 074°08'0 0.0
2015-May-26 06:10N 40°38' W 074°08'0 0.0
2015-May-26 05:29N 40°38' W 074°08'0 0.0
2015-May-26 04:06N 40°38' W 074°08'0 0.0
2015-May-26 03:24N 40°38' W 074°08'0 0.0
2015-May-26 02:31N 40°38' W 074°08'0 0.0
2015-May-26 01:31N 40°38' W 074°08'2 2.2
2015-May-26 00:33N 40°39' W 074°05'1 0.9
2015-May-25 23:33N 40°39' W 074°06'1 1.2
2015-May-25 22:29N 40°38' W 074°08'0 0.0
2015-May-25 21:30N 40°38' W 074°08'0 0.0
2015-May-25 20:31N 40°38' W 074°08'0 0.0
2015-May-25 19:31N 40°38' W 074°08'0 0.0
2015-May-25 18:32N 40°38' W 074°08'0 0.4
2015-May-25 17:33N 40°39' W 074°07'3 3.0
2015-May-25 16:33N 40°39' W 074°11'4 2.8
2015-May-25 15:16N 40°35' W 074°13'3 4.5
2015-May-25 14:33N 40°38' W 074°12'7 6.6
2015-May-25 13:33N 40°38' W 074°03'3 3.5
2015-May-25 12:33N 40°39' W 074°08'0 0.2
2015-May-25 11:32N 40°38' W 074°08'0 0.0
2015-May-25 10:33N 40°38' W 074°08'0 0.0
2015-May-25 09:31N 40°38' W 074°08'0 0.0
2015-May-25 06:24N 40°38' W 074°08'0 0.0
2015-May-25 05:18N 40°38' W 074°08'0 0.0
2015-May-25 04:31N 40°38' W 074°08'3 3.1
2015-May-25 03:33N 40°38' W 074°12'3 2.4
2015-May-25 02:21N 40°38' W 074°08'0 0.0
2015-May-25 01:33N 40°38' W 074°08'0 0.0
2015-May-25 00:25N 40°38' W 074°08'0 0.0
2015-May-24 23:32N 40°38' W 074°08'0 0.0
2015-May-24 22:29N 40°38' W 074°08'0 0.0
2015-May-24 21:30N 40°38' W 074°08'0 0.0
2015-May-24 20:28N 40°38' W 074°08'0 0.0
2015-May-24 19:25N 40°38' W 074°08'0 0.0
2015-May-24 18:32N 40°38' W 074°08'0 0.0
2015-May-24 17:32N 40°38' W 074°08'0 0.0
2015-May-24 16:33N 40°38' W 074°08'0 0.0
2015-May-24 15:31N 40°38' W 074°08'0 0.0
2015-May-24 14:31N 40°38' W 074°08'0 0.0
2015-May-24 13:32N 40°38' W 074°08'0 0.0
2015-May-24 12:33N 40°38' W 074°08'0 0.0
2015-May-24 11:16N 40°38' W 074°08'0 0.0
2015-May-24 10:31N 40°38' W 074°08'0 0.0
2015-May-24 09:32N 40°38' W 074°08'0 0.0
2015-May-24 08:32N 40°38' W 074°08'1 1.5
2015-May-24 07:33N 40°39' W 074°10'7 7.0
2015-May-24 06:30N 40°33' W 074°15'1 1.5
2015-May-24 05:30N 40°34' W 074°14'0 0.0
2015-May-24 04:33N 40°34' W 074°14'6 6.0
2015-May-24 03:33N 40°39' W 074°10'2 1.4
2015-May-24 02:28N 40°38' W 074°08'0 0.0
2015-May-24 01:32N 40°38' W 074°08'0 0.0
2015-May-24 00:32N 40°38' W 074°08'0 0.0
2015-May-23 23:33N 40°38' W 074°08'0 0.0
2015-May-23 22:31N 40°38' W 074°08'0 0.0
2015-May-23 21:28N 40°38' W 074°08'0 0.0
2015-May-23 20:29N 40°38' W 074°08'0 0.0
2015-May-23 19:33N 40°38' W 074°08'0 0.0
2015-May-23 16:29N 40°38' W 074°08'0 0.0
2015-May-23 15:30N 40°38' W 074°08'0 0.0
2015-May-23 14:33N 40°38' W 074°08'0 0.0
2015-May-23 13:32N 40°38' W 074°08'0 0.0
2015-May-23 12:33N 40°38' W 074°08'0 0.0
2015-May-23 11:25N 40°38' W 074°08'0 0.0
2015-May-23 10:20N 40°38' W 074°08'0 0.0
2015-May-23 09:20N 40°38' W 074°08'0 0.0
2015-May-23 08:33N 40°38' W 074°08'0 0.0
2015-May-23 07:28N 40°38' W 074°08'0 0.0
2015-May-23 06:22N 40°38' W 074°08'0 0.0
2015-May-23 04:15N 40°38' W 074°08'0 0.0
2015-May-23 02:25N 40°38' W 074°08'0 0.0
2015-May-23 01:26N 40°38' W 074°08'0 0.0
2015-May-23 00:32N 40°38' W 074°08'0 0.0
2015-May-22 23:33N 40°38' W 074°08'0 0.0
2015-May-22 22:34N 40°38' W 074°08'0 0.0
2015-May-22 21:19N 40°38' W 074°08'0 0.0
2015-May-22 20:23N 40°38' W 074°08'0 0.0
2015-May-22 19:33N 40°38' W 074°08'4 3.5
2015-May-22 18:32N 40°37' W 074°12'4 3.8
2015-May-22 17:31N 40°39' W 074°08'2 2.1
2015-May-22 16:32N 40°39' W 074°05'1 0.9
2015-May-22 15:33N 40°39' W 074°06'6 6.3
2015-May-22 14:33N 40°35' W 074°13'1 0.4
2015-May-22 12:13N 40°36' W 074°12'0 0.0
2015-May-22 11:26N 40°36' W 074°12'71306549.9
2015-May-22 10:20S 78°15' W 074°12'71309009.9
2015-May-22 09:33N 40°36' W 074°12'0 0.0
2015-May-22 08:20N 40°36' W 074°12'1 1.7
2015-May-22 07:32N 40°37' W 074°12'2 1.9
2015-May-22 06:30N 40°39' W 074°11'3 3.0
2015-May-22 05:32N 40°39' W 074°07'4 3.0
2015-May-22 04:12N 40°38' W 074°12'0 0.0
2015-May-22 03:30N 40°38' W 074°12'0 0.0
2015-May-22 02:31N 40°38' W 074°12'3 1.7
2015-May-22 00:31N 40°38' W 074°08'0 0.0
2015-May-21 23:26N 40°38' W 074°08'0 0.0
2015-May-21 22:29N 40°38' W 074°08'0 0.0
2015-May-21 21:33N 40°38' W 074°08'0 0.0
2015-May-21 20:25N 40°38' W 074°08'0 0.0
2015-May-21 19:31N 40°38' W 074°08'0 0.0
2015-May-21 15:19N 40°38' W 074°08'0 0.0
2015-May-21 14:08N 40°38' W 074°08'0 0.0
2015-May-21 13:26N 40°38' W 074°08'0 0.0
2015-May-21 12:33N 40°38' W 074°08'0 0.0
2015-May-21 11:33N 40°38' W 074°08'0 0.0
2015-May-21 10:28N 40°38' W 074°08'0 0.0
2015-May-21 09:29N 40°38' W 074°08'0 0.0
2015-May-21 08:29N 40°38' W 074°08'0 0.0
2015-May-21 07:30N 40°38' W 074°08'0 0.0
2015-May-21 06:13N 40°38' W 074°08'0 0.0
2015-May-21 04:32N 40°38' W 074°08'0 0.0
2015-May-21 02:09N 40°38' W 074°08'0 0.0
2015-May-21 01:28N 40°38' W 074°08'0 0.0
2015-May-21 00:29N 40°38' W 074°08'0 0.0
2015-May-20 23:29N 40°38' W 074°08'3 3.1
2015-May-20 22:32N 40°41' W 074°09'0 0.0
2015-May-20 21:29N 40°41' W 074°09'3 3.0
2015-May-20 20:33N 40°39' W 074°09'7 6.6
2015-May-20 19:33N 40°41' W 074°01'2 2.0
2015-May-20 18:33N 40°42' W 073°58'2 2.2
2015-May-20 17:33N 40°41' W 074°01'6 5.5
2015-May-20 16:28N 40°38' W 074°08'0 0.0
2015-May-20 15:28N 40°38' W 074°08'0 0.0
2015-May-20 14:22N 40°38' W 074°08'0 0.0
2015-May-20 13:05N 40°38' W 074°08'0 0.0
2015-May-20 12:12N 40°38' W 074°08'0 0.0
2015-May-20 10:31N 40°38' W 074°08'0 0.0
2015-May-20 09:32N 40°38' W 074°08'  

Dump ship's entire track history